Terra Bella
DateTemperatureDew Point
05/07 - 12:15 AM57.9°54.5°
05/07 - 12:00 AM57.3°54.5°
05/06 - 11:45 PM56.5°54.4°
05/06 - 11:30 PM56.1°53.7°
05/06 - 11:15 PM56.6°53.7°
05/06 - 11:00 PM57.0°53.6°
05/06 - 10:45 PM57.7°53.9°
05/06 - 10:30 PM58.4°53.9°
05/06 - 10:15 PM58.9°54.0°
05/06 - 10:00 PM59.5°54.3°
05/06 - 09:45 PM60.3°54.3°
05/06 - 09:30 PM60.7°54.7°
05/06 - 09:15 PM61.0°55.0°
05/06 - 09:00 PM61.6°55.3°
05/06 - 08:45 PM62.7°55.1°
05/06 - 08:30 PM63.9°54.8°
05/06 - 08:15 PM65.4°54.7°
05/06 - 08:00 PM66.7°54.6°
05/06 - 07:45 PM68.4°54.9°
05/06 - 07:30 PM70.0°55.1°
05/06 - 07:15 PM71.8°55.2°
05/06 - 07:00 PM73.3°54.9°
05/06 - 06:45 PM74.4°54.7°
05/06 - 06:30 PM75.7°54.9°
05/06 - 06:15 PM76.8°54.7°
05/06 - 06:00 PM78.4°55.5°
05/06 - 05:45 PM80.9°56.1°
05/06 - 05:30 PM81.3°56.3°
05/06 - 05:15 PM80.3°55.6°
05/06 - 05:00 PM82.4°56.1°
05/06 - 04:45 PM82.3°56.2°
05/06 - 04:30 PM82.8°56.5°
05/06 - 04:15 PM82.8°56.1°
05/06 - 04:00 PM82.6°56.1°
05/06 - 03:45 PM82.9°56.2°
05/06 - 03:30 PM81.7°55.8°
05/06 - 03:15 PM81.2°55.4°
05/06 - 03:00 PM81.2°55.2°
05/06 - 02:45 PM82.1°55.4°
05/06 - 02:30 PM82.0°56.0°
05/06 - 02:15 PM80.4°55.1°
05/06 - 02:00 PM79.7°55.2°
05/06 - 01:45 PM78.6°54.9°
05/06 - 01:30 PM77.4°53.7°
05/06 - 01:15 PM77.3°53.6°
05/06 - 01:00 PM78.5°54.6°
05/06 - 12:45 PM77.1°54.1°
05/06 - 12:30 PM77.5°54.0°
05/06 - 12:15 PM78.0°54.9°
05/06 - 12:00 PM75.7°54.0°
05/06 - 11:45 AM75.2°53.3°
05/06 - 11:30 AM75.5°54.0°
05/06 - 11:15 AM73.6°53.3°
05/06 - 11:00 AM72.4°53.4°
05/06 - 10:45 AM71.4°53.7°
05/06 - 10:30 AM72.3°54.5°
05/06 - 10:15 AM72.1°55.3°
05/06 - 10:00 AM71.0°55.1°
05/06 - 09:45 AM70.3°55.2°
05/06 - 09:30 AM69.1°54.8°
05/06 - 09:15 AM68.3°54.5°
05/06 - 09:00 AM67.6°54.1°
05/06 - 08:45 AM67.0°54.0°
05/06 - 08:30 AM66.6°53.8°
05/06 - 08:15 AM66.4°54.1°
05/06 - 08:00 AM65.5°54.1°
05/06 - 07:45 AM64.1°54.1°
05/06 - 07:30 AM61.8°54.1°
05/06 - 07:15 AM59.2°54.9°
05/06 - 07:00 AM56.4°55.6°
05/06 - 06:45 AM53.6°53.6°
05/06 - 06:30 AM51.1°51.1°
05/06 - 06:15 AM47.8°47.8°
05/06 - 06:00 AM46.1°46.1°
05/06 - 05:45 AM45.5°45.5°
05/06 - 05:30 AM45.5°45.5°
05/06 - 05:15 AM45.8°45.8°
05/06 - 05:00 AM45.9°45.9°
05/06 - 04:45 AM46.1°46.1°
05/06 - 04:30 AM46.3°46.3°
05/06 - 04:15 AM46.5°46.5°
05/06 - 04:00 AM46.8°46.8°
05/06 - 03:45 AM47.0°47.0°
05/06 - 03:30 AM46.9°46.9°
05/06 - 03:15 AM47.2°47.2°
05/06 - 03:00 AM47.7°47.7°
05/06 - 02:45 AM47.9°47.9°
05/06 - 02:30 AM47.6°47.6°
05/06 - 02:15 AM47.8°47.8°
05/06 - 02:00 AM48.1°48.1°
05/06 - 01:45 AM48.4°48.4°
05/06 - 01:30 AM48.8°48.8°
05/06 - 01:15 AM48.9°48.9°
05/06 - 01:00 AM49.2°49.2°
05/06 - 12:45 AM49.7°49.7°
05/06 - 12:30 AM50.3°50.3°
05/06 - 12:15 AM50.6°50.6°
05/06 - 12:00 AM51.3°50.9°
05/05 - 11:45 PM52.0°51.3°
05/05 - 11:30 PM52.8°51.8°
05/05 - 11:15 PM53.4°52.0°
05/05 - 11:00 PM54.0°52.3°
05/05 - 10:45 PM54.3°52.4°
05/05 - 10:30 PM54.4°52.0°
05/05 - 10:15 PM54.8°51.5°
05/05 - 10:00 PM56.0°51.7°
05/05 - 09:45 PM57.3°51.8°
05/05 - 09:30 PM58.7°51.7°
05/05 - 09:15 PM59.7°51.9°
05/05 - 09:00 PM60.3°51.8°
05/05 - 08:45 PM61.3°51.6°
05/05 - 08:30 PM62.1°51.8°
05/05 - 08:15 PM62.8°51.5°
05/05 - 08:00 PM63.2°51.4°
05/05 - 07:45 PM63.8°51.4°
05/05 - 07:30 PM64.3°51.0°
05/05 - 07:15 PM64.8°51.0°
05/05 - 07:00 PM65.5°50.7°
05/05 - 06:45 PM66.0°49.5°
05/05 - 06:30 PM66.3°48.9°
05/05 - 06:15 PM66.7°48.4°
05/05 - 06:00 PM67.0°48.2°
05/05 - 05:45 PM67.7°48.8°
05/05 - 05:30 PM68.3°49.2°
05/05 - 05:15 PM69.7°49.4°
05/05 - 05:00 PM70.1°48.5°
05/05 - 04:45 PM72.6°48.1°
05/05 - 04:30 PM72.6°46.9°
05/05 - 04:15 PM71.6°49.4°
05/05 - 04:00 PM70.1°54.0°
05/05 - 03:45 PM67.0°53.5°
05/05 - 03:30 PM67.0°53.9°
05/05 - 03:15 PM70.3°52.2°
05/05 - 03:00 PM69.0°51.3°
05/05 - 02:45 PM68.2°51.0°
05/05 - 02:30 PM69.1°51.8°
05/05 - 02:15 PM69.2°52.4°
05/05 - 02:00 PM70.1°52.9°
05/05 - 01:45 PM70.7°53.2°
05/05 - 01:30 PM69.7°53.2°
05/05 - 01:15 PM68.4°53.2°
05/05 - 01:00 PM68.0°52.9°
05/05 - 12:45 PM67.5°53.5°
05/05 - 12:30 PM65.5°52.9°
05/05 - 12:15 PM65.2°53.7°
05/05 - 12:00 PM64.0°53.7°
05/05 - 11:45 AM64.0°53.7°
05/05 - 11:30 AM63.3°54.1°
05/05 - 11:15 AM62.9°53.8°
05/05 - 11:00 AM62.7°54.5°
05/05 - 10:45 AM61.8°54.8°
05/05 - 10:30 AM60.2°54.7°
05/05 - 10:15 AM59.4°54.7°
05/05 - 10:00 AM58.5°55.2°
05/05 - 09:45 AM57.6°54.5°
05/05 - 09:30 AM57.6°54.6°
05/05 - 09:15 AM57.8°54.6°
05/05 - 09:00 AM57.4°54.7°
05/05 - 08:45 AM56.7°54.6°
05/05 - 08:30 AM56.2°54.5°
05/05 - 08:15 AM55.6°54.1°
05/05 - 08:00 AM55.4°53.9°
05/05 - 07:45 AM55.3°53.8°
05/05 - 07:30 AM55.3°54.0°
05/05 - 07:15 AM55.2°53.8°
05/05 - 07:00 AM55.2°53.6°
05/05 - 06:45 AM55.0°53.6°
05/05 - 06:30 AM54.8°53.6°
05/05 - 06:15 AM54.6°53.5°
05/05 - 06:00 AM54.5°53.5°
05/05 - 05:45 AM54.6°53.4°
05/05 - 05:30 AM54.6°53.3°
05/05 - 05:15 AM54.6°53.2°
05/05 - 05:00 AM54.6°53.0°
05/05 - 04:45 AM54.5°52.7°
05/05 - 04:30 AM54.5°52.5°
05/05 - 04:15 AM54.6°52.6°
05/05 - 04:00 AM54.6°53.0°
05/05 - 03:45 AM54.5°53.4°
05/05 - 03:30 AM54.4°53.6°
05/05 - 03:15 AM54.7°53.8°
05/05 - 03:00 AM55.1°53.9°
05/05 - 02:45 AM55.3°53.8°
05/05 - 02:30 AM55.3°53.4°
05/05 - 02:15 AM55.6°53.3°
05/05 - 02:00 AM55.6°53.2°
05/05 - 01:45 AM55.7°53.1°
05/05 - 01:30 AM55.9°53.0°
05/05 - 01:15 AM56.1°52.8°
05/05 - 01:00 AM56.3°52.7°